S&P 500   3,006.72 (+0.69%)
DOW   26,827.64 (+0.21%)
QQQ   193.39 (+0.89%)
AAPL   240.51 (+1.73%)
FB   189.75 (+2.10%)
MSFT   138.39 (+0.71%)
GOOGL   1,244.23 (-0.01%)
AMZN   1,785.67 (+1.60%)
CGC   20.35 (+0.69%)
NVDA   196.11 (+2.95%)
MU   45.25 (+4.09%)
BABA   173.52 (+2.60%)
GE   8.79 (-1.90%)
TSLA   253.46 (-1.36%)
AMD   32.07 (+3.52%)
T   38.23 (-0.62%)
F   9.03 (-2.80%)
ACB   3.69 (+0.27%)
PRI   125.69 (+1.75%)
NFLX   278.05 (+1.00%)
BAC   31.02 (+2.21%)
GILD   65.22 (+0.48%)
DIS   130.26 (-0.48%)
S&P 500   3,006.72 (+0.69%)
DOW   26,827.64 (+0.21%)
QQQ   193.39 (+0.89%)
AAPL   240.51 (+1.73%)
FB   189.75 (+2.10%)
MSFT   138.39 (+0.71%)
GOOGL   1,244.23 (-0.01%)
AMZN   1,785.67 (+1.60%)
CGC   20.35 (+0.69%)
NVDA   196.11 (+2.95%)
MU   45.25 (+4.09%)
BABA   173.52 (+2.60%)
GE   8.79 (-1.90%)
TSLA   253.46 (-1.36%)
AMD   32.07 (+3.52%)
T   38.23 (-0.62%)
F   9.03 (-2.80%)
ACB   3.69 (+0.27%)
PRI   125.69 (+1.75%)
NFLX   278.05 (+1.00%)
BAC   31.02 (+2.21%)
GILD   65.22 (+0.48%)
DIS   130.26 (-0.48%)
Log in

Eaton Vance Institutional Ownership (NYSE:EV)

$44.98
+0.91 (+2.06 %)
(As of 10/21/2019 04:00 PM ET)
Today's Range
$44.50
Now: $44.98
$45.05
50-Day Range
$41.91
MA: $44.22
$46.73
52-Week Range
$32.28
Now: $44.98
$47.29
Volume477,044 shs
Average Volume839,150 shs
Market Capitalization$5.08 billion
P/E Ratio14.01
Dividend Yield3.18%
Beta1.55

Institutional Ownership

Institutional Ownership Changes (13F Filings) for Eaton Vance (NYSE:EV)

Institutional Ownership Percentage: 70.78%

Eaton Vance (NYSE EV) Institutional Buying and Selling

Reporting DateHedge FundShares HeldMarket Value% of PortfolioQuarterly Change in SharesOwnership in Company
10/21/2019Boston Trust Walden Corp914,906$41.11M0.5%+4.0%0.809%
10/18/2019Stephens Inc. AR7,180$0.32M0.0%-4.2%0.006%
10/18/2019Coastline Trust Co40,360$1.81M0.3%+1.6%0.036%
10/18/2019Endurance Wealth Management Inc.1,800$81K0.0%-30.9%0.002%
10/17/2019Envestnet Asset Management Inc.79,998$3.59M0.0%+13.5%0.071%
10/17/2019Triad Investment Management81,069$3.64M4.0%-4.6%0.072%
10/17/2019Robeco Institutional Asset Management B.V.922$41K0.0%N/A0.001%
10/17/2019Nisa Investment Advisors LLC44,630$2.01M0.0%-0.9%0.039%
10/16/2019DNB Asset Management AS12,944$0.58M0.0%+2.8%0.011%
10/15/2019Gateway Investment Advisers LLC205,107$9.22M0.1%-1.3%0.181%
10/10/2019Pacer Advisors Inc.42,523$1.91M0.0%-7.2%0.038%
10/9/2019Crossmark Global Holdings Inc.11,070$0.50M0.0%-8.4%0.010%
10/9/2019Cerebellum GP LLC2,270$0.13M0.1%N/A0.002%
10/7/2019Cerebellum GP LLC2,270$0.13M0.1%N/A0.002%
10/2/2019State of Alaska Department of Revenue20,105$0.90M0.0%-30.6%0.018%
9/6/2019BRITISH COLUMBIA INVESTMENT MANAGEMENT Corp22,285$0.96M0.0%+3.8%0.020%
8/26/2019Toronto Dominion Bank17,572$0.76M0.0%-16.3%0.015%
8/23/2019Treasurer of the State of North Carolina54,971$2.37M0.0%+22.9%0.048%
8/23/2019BlackRock Inc.12,079,092$520.97M0.0%-1.5%10.589%
8/20/2019Sage Rhino Capital LLC22,773$0.98M0.6%+6.2%0.020%
8/20/2019Barings LLC4,858$0.21M0.0%N/A0.004%
8/17/2019Magnetar Financial LLC10,014$0.43M0.0%+8.2%0.009%
8/17/2019Royal Bank of Canada37,683$1.63M0.0%+1.1%0.033%
8/17/2019HM Payson & Co.2,065$89K0.0%N/A0.002%
8/17/2019Ladenburg Thalmann Financial Services Inc.7,460$0.32M0.0%+6.4%0.007%
8/16/2019Eaton Vance Management444,632$19.18M0.0%-60.8%0.390%
8/16/2019Amundi Pioneer Asset Management Inc.39,066$1.69M0.0%-14.7%0.034%
8/16/2019United Services Automobile Association41,707$1.80M0.0%+84.2%0.037%
8/15/2019California Public Employees Retirement System184,018$7.94M0.0%-3.9%0.161%
8/15/2019Cambridge Investment Research Advisors Inc.18,387$0.79M0.0%+24.5%0.016%
8/15/2019Pictet Asset Management Ltd.46,891$2.02M0.0%+8.1%0.041%
8/15/2019Nuveen Asset Management LLC432,423$18.65M0.0%N/A0.379%
8/15/2019Andra AP fonden106,200$4.58M0.1%-4.9%0.093%
8/15/2019Victory Capital Management Inc.19,748$0.85M0.0%N/A0.017%
8/15/2019UBS Asset Management Americas Inc.370,630$15.99M0.0%+3.3%0.325%
8/15/2019Covenant Partners LLC5,517$0.24M0.1%N/A0.005%
8/15/2019Jane Street Group LLC6,334$0.27M0.0%-80.5%0.006%
8/14/2019D. E. Shaw & Co. Inc.90,593$3.91M0.0%-8.6%0.079%
8/14/2019Cubist Systematic Strategies LLC97,498$4.21M0.1%+338.7%0.085%
8/14/2019Morgan Stanley259,031$11.17M0.0%-3.5%0.227%
8/14/2019Paloma Partners Management Co24,815$1.07M0.0%-75.4%0.022%
8/14/2019Man Group plc76,655$3.31M0.0%+173.8%0.067%
8/14/2019Bank of America Corp DE1,000,588$43.16M0.0%-7.8%0.877%
8/14/2019Zebra Capital Management LLC8,653$0.37M0.2%-15.3%0.008%
8/14/2019Marshall Wace North America L.P.5,847$0.25M0.0%N/A0.005%
8/14/2019Institutional & Family Asset Management LLC73,742$3.18M0.7%-1.6%0.065%
8/14/2019Invesco Ltd.1,238,869$53.43M0.0%+16.8%1.086%
8/14/2019Vanguard Group Inc.10,685,808$460.88M0.0%-1.3%9.368%
8/14/2019Ellington Management Group LLC6,400$0.28M0.0%N/A0.006%
8/14/2019ETF Managers Group LLC4,519$0.19M0.0%N/A0.004%
8/14/2019A.R.T. Advisors LLC39,310$1.70M0.1%N/A0.034%
8/14/2019Holocene Advisors LP47,355$2.04M0.0%+15.5%0.042%
8/14/2019Asset Management One Co. Ltd.55,643$2.40M0.0%+6.7%0.049%
8/13/2019O Shares Investment Advisers LLC50,630$2.18M0.3%-0.6%0.044%
8/13/2019Tower Research Capital LLC TRC8,937$0.39M0.0%+20.6%0.008%
8/13/2019Earnest Partners LLC1,570,843$67.75M0.6%-9.1%1.377%
8/13/2019BlackRock Inc.12,079,092$520.97M0.0%-1.5%10.589%
8/13/2019US Bancorp DE22,796$0.98M0.0%-1.8%0.020%
8/13/2019HighTower Advisors LLC103,092$4.43M0.0%-11.3%0.090%
8/13/2019Toronto Dominion Bank17,572$0.76M0.0%-16.3%0.015%
8/13/2019Seeyond2,270$98K0.0%-18.0%0.002%
8/13/2019Pictet Asset Management Ltd.46,891$2.02M0.0%+8.1%0.041%
8/13/2019AustralianSuper Pty Ltd69,397$2.99M0.0%-18.7%0.061%
8/13/2019Northern Trust Corp1,252,493$54.02M0.0%+0.8%1.098%
8/13/2019Canada Pension Plan Investment Board58,787$2.54M0.0%+206.7%0.052%
8/12/2019Public Employees Retirement System of Ohio34,060$1.47M0.0%-27.1%0.030%
8/12/2019Brown Advisory Inc.75,766$3.27M0.0%-1.7%0.066%
8/12/2019Pacer Advisors Inc.45,819$1.98M0.0%N/A0.040%
8/12/2019Cadence Capital Management LLC4,851$0.21M0.0%-19.8%0.004%
8/12/2019Renaissance Technologies LLC24,300$1.05M0.0%-97.9%0.021%
8/12/2019Wade G W & Inc.100,427$4.33M0.4%+0.4%0.088%
8/12/2019Bank of New York Mellon Corp1,614,631$69.64M0.0%-0.6%1.415%
8/10/2019LPL Financial LLC7,816$0.34M0.0%+48.0%0.007%
8/10/2019Charles Schwab Investment Management Inc.1,150,040$49.60M0.0%+3.3%1.008%
8/10/2019Oppenheimer Asset Management Inc.28,962$1.25M0.0%+8.0%0.025%
8/10/2019Oppenheimer & Co. Inc.12,620$0.54M0.0%-2.7%0.011%
8/9/2019Bank of Montreal Can9,240$0.40M0.0%-65.3%0.008%
8/9/2019Wealthsource Partners LLC10,205$0.44M0.1%N/A0.009%
8/9/2019Rockefeller Capital Management L.P.912$39K0.0%-51.1%0.001%
8/9/2019Mitsubishi UFJ Securities Holdings Co. Ltd.1,790$77K0.3%N/A0.002%
8/9/2019Russell Investments Group Ltd.3,588$0.15M0.0%-52.9%0.003%
8/9/2019Skandinaviska Enskilda Banken AB publ280,210$12.09M0.1%+155.6%0.246%
8/9/2019Synovus Financial Corp4,164$0.18M0.0%+33.2%0.004%
8/9/2019Prudential Financial Inc.72,357$3.12M0.0%+5.9%0.063%
8/9/2019Teza Capital Management LLC24,171$1.04M0.6%N/A0.021%
8/9/2019Schroder Investment Management Group963,410$41.55M0.0%+18.6%0.845%
8/8/2019Landscape Capital Management L.L.C.3,915$0.92M0.1%N/A0.003%
8/8/2019Allianz Asset Management GmbH5,162$0.22M0.0%-63.8%0.005%
8/8/2019Hunter Associates Investment Management LLC80,350$3.47M1.2%+1.0%0.070%
8/7/2019BB&T Securities LLC22,045$0.95M0.0%+11.2%0.019%
8/7/2019Menta Capital LLC13,629$0.59M0.2%N/A0.012%
8/7/2019Janus Henderson Group PLC1,653,271$71.31M0.0%-0.3%1.449%
8/7/2019First Republic Investment Management Inc.22,312$0.96M0.0%-9.2%0.020%
8/7/2019LS Investment Advisors LLC8,372$0.36M0.0%-7.1%0.007%
8/7/2019Commerce Bank13,553$0.59M0.0%-21.1%0.012%
8/7/2019Connor Clark & Lunn Investment Management Ltd.12,850$0.55M0.0%N/A0.011%
8/7/2019JPMorgan Chase & Co.1,890,867$80.93M0.0%+2.2%1.658%
8/7/2019Mitsubishi UFJ Trust & Banking Corp95,232$4.08M0.0%+12.7%0.083%
8/6/2019Wells Fargo & Company MN5,033,557$217.10M0.1%-0.2%4.413%
8/6/2019GSA Capital Partners LLP13,068$0.56M0.1%N/A0.011%
(Data available from 1/1/2016 forward)
This page was last updated on 10/21/2019 by MarketBeat.com Staff

Featured Article: What is the Beige Book?

Enter your email address below to receive a concise daily summary of analysts' upgrades, downgrades and new coverage with MarketBeat.com's FREE daily email newsletter.

Yahoo Gemini Pixel